Time;durP1;ratioP1;P1;durP2;ratioP2;P2;SDS_P1;SDS_P2;PMS_P1;PMS_P2;Temp;Humidity;BMP_temperature;BMP_pressure;BME280_temperature;BME280_humidity;BME280_pressure;Samples;Min_cycle;Max_cycle;Signal;HPM_P1;HPM_P2
2023/03/08 00:01:23;;;;;;;21.48;9.98;;;;;;;-1.19;100.00;100005.16;5089580;28;20032;-71
2023/03/08 00:03:56;;;;;;;20.10;10.13;;;;;;;-1.20;100.00;100002.72;5089696;28;20509;-71
2023/03/08 00:06:23;;;;;;;20.58;11.30;;;;;;;-1.20;100.00;100006.16;5089675;28;20423;-71
2023/03/08 00:08:48;;;;;;;16.98;8.88;;;;;;;-1.20;100.00;100008.78;5089461;28;20051;-71
2023/03/08 00:11:14;;;;;;;18.80;10.07;;;;;;;-1.20;100.00;99995.69;5078045;28;20032;-71
2023/03/08 00:13:40;;;;;;;22.10;11.60;;;;;;;-1.19;100.00;99996.50;5070183;28;20025;-71
2023/03/08 00:16:08;;;;;;;22.33;10.38;;;;;;;-1.18;100.00;99998.16;5079122;28;20495;-71
2023/03/08 00:18:35;;;;;;;20.80;11.60;;;;;;;-1.20;100.00;99987.03;5089443;28;20039;-71
2023/03/08 00:21:06;;;;;;;20.38;10.45;;;;;;;-1.18;100.00;99990.28;5089359;28;20020;-71
2023/03/08 00:23:32;;;;;;;22.05;10.88;;;;;;;-1.19;100.00;99993.88;5073539;28;20039;-71
2023/03/08 00:25:57;;;;;;;23.45;12.95;;;;;;;-1.17;100.00;99994.59;5070070;28;20399;-71
2023/03/08 00:28:22;;;;;;;24.13;12.82;;;;;;;-1.17;100.00;99989.34;5069926;28;20025;-71
2023/03/08 00:30:59;;;;;;;25.88;12.38;;;;;;;-1.17;100.00;99986.72;5069954;28;20035;-71
2023/03/08 00:33:25;;;;;;;24.55;12.00;;;;;;;-1.15;100.00;99988.25;5075108;28;20049;-71
2023/03/08 00:36:01;;;;;;;22.70;11.32;;;;;;;-1.15;100.00;99992.66;5089160;28;20028;-71
2023/03/08 00:38:29;;;;;;;23.83;11.85;;;;;;;-1.13;100.00;99996.78;5089118;28;20024;-71
2023/03/08 00:40:54;;;;;;;31.58;13.77;;;;;;;-1.13;100.00;99996.78;5089232;28;20023;-71
2023/03/08 00:43:20;;;;;;;22.17;12.80;;;;;;;-1.07;100.00;99997.16;5089044;28;20085;-71
2023/03/08 00:45:46;;;;;;;24.30;13.10;;;;;;;-1.09;100.00;99992.06;5070374;28;20051;-71
2023/03/08 00:48:11;;;;;;;22.77;11.38;;;;;;;-1.02;100.00;99987.06;5069701;28;20029;-71
2023/03/08 00:50:37;;;;;;;23.50;13.88;;;;;;;-0.99;100.00;99990.25;5069683;28;20082;-71
2023/03/08 00:53:02;;;;;;;23.45;13.00;;;;;;;-0.97;100.00;99992.72;5069812;28;20034;-71
2023/03/08 00:55:28;;;;;;;24.23;12.07;;;;;;;-0.96;100.00;99989.13;5088699;28;20052;-70
2023/03/08 00:57:53;;;;;;;22.13;11.85;;;;;;;-0.96;100.00;99989.97;5074493;28;20038;-71
2023/03/08 01:00:19;;;;;;;20.65;10.32;;;;;;;-0.97;100.00;99983.09;5069671;28;20077;-71
2023/03/08 01:02:44;;;;;;;23.10;13.40;;;;;;;-0.97;100.00;99982.25;5069729;28;20043;-71
2023/03/08 01:05:10;;;;;;;20.45;11.65;;;;;;;-1.01;100.00;99979.09;5070543;28;20060;-71
2023/03/08 01:07:35;;;;;;;22.70;13.52;;;;;;;-1.04;100.00;99971.53;5073550;28;20040;-71
2023/03/08 01:10:02;;;;;;;24.92;13.68;;;;;;;-0.99;100.00;99973.72;5073463;28;20086;-71
2023/03/08 01:12:28;;;;;;;26.23;13.13;;;;;;;-0.99;100.00;99973.72;5075365;28;20031;-71
2023/03/08 01:14:53;;;;;;;22.85;12.68;;;;;;;-0.98;100.00;99972.75;5091512;28;20024;-71
2023/03/08 01:17:18;;;;;;;26.80;14.05;;;;;;;-0.97;100.00;99967.38;5091470;28;20031;-71
2023/03/08 01:19:44;;;;;;;25.83;15.88;;;;;;;-0.96;100.00;99963.78;5093053;28;20024;-71
2023/03/08 01:22:10;;;;;;;28.30;13.98;;;;;;;-0.92;100.00;99961.69;5090242;28;20485;-71
2023/03/08 01:24:35;;;;;;;26.55;14.60;;;;;;;-0.92;100.00;99951.22;5073259;28;20036;-71
2023/03/08 01:27:00;;;;;;;26.30;13.57;;;;;;;-0.91;100.00;99950.28;5073218;28;20067;-71
2023/03/08 01:29:27;;;;;;;25.85;14.80;;;;;;;-0.92;100.00;99938.13;5073195;28;20028;-71
2023/03/08 01:31:53;;;;;;;26.05;14.48;;;;;;;-0.92;100.00;99941.59;5073246;28;20060;-71
2023/03/08 01:34:19;;;;;;;25.95;14.23;;;;;;;-0.94;100.00;99940.91;5073081;28;20530;-71
2023/03/08 01:36:44;;;;;;;28.88;16.08;;;;;;;-0.92;100.00;99933.75;5072921;28;20020;-71
2023/03/08 01:39:09;;;;;;;25.88;15.63;;;;;;;-0.90;100.00;99926.56;5072986;28;20111;-71
2023/03/08 01:41:35;;;;;;;28.45;15.40;;;;;;;-0.88;100.00;99921.19;5090256;28;20036;-71
2023/03/08 01:44:00;;;;;;;27.80;14.77;;;;;;;-0.83;100.00;99911.09;5092050;28;20032;-71
2023/03/08 01:46:33;;;;;;;34.17;16.92;;;;;;;-0.76;100.00;99914.78;5092133;28;20363;-71
2023/03/08 01:49:14;;;;;;;27.98;15.15;;;;;;;-0.76;100.00;99920.03;5092129;28;20064;-71
2023/03/08 01:51:53;;;;;;;29.42;17.15;;;;;;;-0.69;100.00;99915.03;5092233;28;20111;-71
2023/03/08 01:54:23;;;;;;;27.15;15.30;;;;;;;-0.70;100.00;99906.34;5092059;28;20028;-71
2023/03/08 01:56:52;;;;;;;27.53;16.47;;;;;;;-0.69;100.00;99904.53;5091960;28;20491;-71
2023/03/08 01:59:20;;;;;;;28.85;16.48;;;;;;;-0.72;100.00;99900.44;5092133;28;20106;-71
2023/03/08 02:01:46;;;;;;;26.17;12.63;;;;;;;-0.76;100.00;99896.47;5091854;28;20106;-71
2023/03/08 02:04:11;;;;;;;25.45;14.05;;;;;;;-0.74;100.00;99902.34;5084869;28;20032;-71
2023/03/08 02:06:37;;;;;;;27.27;15.60;;;;;;;-0.71;100.00;99903.84;5072487;28;20059;-69
2023/03/08 02:09:04;;;;;;;27.00;15.00;;;;;;;-0.72;100.00;99900.44;5072396;28;20064;-71
2023/03/08 02:11:32;;;;;;;26.50;14.77;;;;;;;-0.72;100.00;99897.00;5072385;28;20052;-71
2023/03/08 02:13:58;;;;;;;26.73;15.38;;;;;;;-0.73;100.00;99892.72;5091474;28;20055;-71
2023/03/08 02:16:24;;;;;;;28.33;15.43;;;;;;;-0.70;100.00;99889.81;5091518;28;20020;-71
2023/03/08 02:18:58;;;;;;;28.17;15.70;;;;;;;-0.73;100.00;99880.47;5091559;28;20403;-71
2023/03/08 02:21:25;;;;;;;25.95;14.57;;;;;;;-0.63;100.00;99882.19;5091469;28;20132;-71
2023/03/08 02:23:50;;;;;;;30.27;19.83;;;;;;;-0.62;100.00;99866.34;5091447;28;20035;-71
2023/03/08 02:26:16;;;;;;;29.40;18.38;;;;;;;-0.62;100.00;99861.09;5091502;28;20541;-71
2023/03/08 02:28:42;;;;;;;30.52;16.23;;;;;;;-0.55;100.00;99864.78;5091257;28;20042;-71
2023/03/08 02:31:08;;;;;;;29.38;16.92;;;;;;;-0.52;100.00;99859.22;5091596;28;20069;-71
2023/03/08 02:33:34;;;;;;;31.60;18.77;;;;;;;-0.49;100.00;99855.50;5091351;28;20123;-71
2023/03/08 02:36:06;;;;;;;31.40;20.02;;;;;;;-0.47;100.00;99856.16;5091259;28;20526;-71
2023/03/08 02:38:32;;;;;;;39.33;22.13;;;;;;;-0.46;100.00;99858.63;5090006;28;20336;-71
2023/03/08 02:40:57;;;;;;;45.97;24.83;;;;;;;-0.46;100.00;99850.75;5091259;28;20042;-71
2023/03/08 02:43:22;;;;;;;42.30;25.30;;;;;;;-0.45;100.00;99847.19;5091183;28;20463;-71
2023/03/08 02:45:48;;;;;;;40.08;24.27;;;;;;;-0.40;100.00;99843.28;5091165;28;20040;-71
2023/03/08 02:48:14;;;;;;;38.15;21.48;;;;;;;-0.38;100.00;99838.72;5091052;28;20043;-71
2023/03/08 02:50:40;;;;;;;35.42;21.27;;;;;;;-0.36;100.00;99831.53;5082145;28;20111;-71
2023/03/08 02:53:05;;;;;;;35.17;20.85;;;;;;;-0.34;100.00;99832.19;5071617;28;20143;-71
2023/03/08 02:55:34;;;;;;;34.05;20.98;;;;;;;-0.33;100.00;99834.66;5071415;28;20067;-71
2023/03/08 02:58:00;;;;;;;27.02;16.38;;;;;;;-0.33;100.00;99834.66;5071569;28;20024;-71
2023/03/08 03:00:25;;;;;;;30.02;15.82;;;;;;;-0.35;100.00;99827.94;5090431;28;20042;-71
2023/03/08 03:02:51;;;;;;;32.72;18.20;;;;;;;-0.34;100.00;99833.03;5090674;28;20443;-71
2023/03/08 03:05:16;;;;;;;35.03;16.65;;;;;;;-0.34;100.00;99833.03;5071368;28;20025;-71
2023/03/08 03:07:42;;;;;;;31.20;17.90;;;;;;;-0.33;100.00;99832.06;5071434;28;20029;-71
2023/03/08 03:10:10;;;;;;;34.72;20.27;;;;;;;-0.32;100.00;99830.25;5071180;28;20089;-71
2023/03/08 03:12:36;;;;;;;31.60;18.77;;;;;;;-0.31;100.00;99830.09;5090677;28;20469;-71
2023/03/08 03:15:02;;;;;;;32.75;17.67;;;;;;;-0.31;100.00;99821.44;5090448;28;20043;-71
2023/03/08 03:17:28;;;;;;;30.23;18.40;;;;;;;-0.28;100.00;99819.31;5078630;28;20415;-71
2023/03/08 03:19:53;;;;;;;29.92;17.13;;;;;;;-0.27;100.00;99807.84;5082345;28;20024;-71
2023/03/08 03:22:18;;;;;;;34.10;17.35;;;;;;;-0.27;100.00;99801.78;5090455;28;20030;-71
2023/03/08 03:24:44;;;;;;;34.65;17.80;;;;;;;-0.27;100.00;99807.84;5090249;28;20931;-71
2023/03/08 03:27:09;;;;;;;35.40;18.27;;;;;;;-0.27;100.00;99805.22;5090289;28;20065;-71
2023/03/08 03:29:36;;;;;;;29.52;18.35;;;;;;;-0.30;100.00;99802.09;5089639;28;20124;-71
2023/03/08 03:32:02;;;;;;;35.83;18.02;;;;;;;-0.27;100.00;99801.78;5089927;28;20042;-71
2023/03/08 03:34:28;;;;;;;35.95;18.42;;;;;;;-0.26;100.00;99800.84;5090173;28;20471;-71
2023/03/08 03:36:54;;;;;;;30.83;16.60;;;;;;;-0.30;100.00;99789.00;5090211;28;20074;-71
2023/03/08 03:39:19;;;;;;;33.05;18.92;;;;;;;-0.25;100.00;99779.72;5090152;28;20020;-71
2023/03/08 03:41:44;;;;;;;36.30;19.67;;;;;;;-0.30;100.00;99766.25;5090092;28;20390;-71
2023/03/08 03:44:10;;;;;;;33.22;19.13;;;;;;;-0.24;100.00;99770.91;5090200;28;20032;-71
2023/03/08 03:46:35;;;;;;;30.83;16.17;;;;;;;-0.27;100.00;99752.03;5089901;28;20479;-71
2023/03/08 03:49:00;;;;;;;30.40;16.75;;;;;;;-0.25;100.00;99757.94;5088439;28;20089;-71
2023/03/08 03:51:26;;;;;;;31.35;18.35;;;;;;;-0.28;100.00;99753.00;5089951;28;20067;-71
2023/03/08 03:53:51;;;;;;;33.90;16.20;;;;;;;-0.23;100.00;99756.81;5089882;28;20024;-71
2023/03/08 03:56:22;;;;;;;35.63;19.40;;;;;;;-0.24;100.00;99760.41;5089629;28;20147;-71
2023/03/08 03:58:49;;;;;;;32.77;18.27;;;;;;;-0.22;100.00;99763.69;5089740;28;20032;-71
2023/03/08 04:01:20;;;;;;;33.25;17.65;;;;;;;-0.20;100.00;99762.72;5089667;28;20085;-71
2023/03/08 04:03:46;;;;;;;34.28;19.17;;;;;;;-0.20;100.00;99750.44;5089703;28;20028;-71
2023/03/08 04:06:14;;;;;;;33.00;17.40;;;;;;;-0.17;100.00;99738.81;5089714;28;20421;-72
2023/03/08 04:08:41;;;;;;;31.65;16.95;;;;;;;-0.17;100.00;99746.69;5089504;28;20075;-71
2023/03/08 04:11:12;;;;;;;36.17;17.38;;;;;;;-0.18;100.00;99745.88;5089757;28;20091;-71
2023/03/08 04:13:38;;;;;;;37.55;18.17;;;;;;;-0.19;100.00;99741.59;5076921;28;20043;-71
2023/03/08 04:16:09;;;;;;;36.17;17.48;;;;;;;-0.18;100.00;99738.00;5079238;28;20053;-71
2023/03/08 04:18:35;;;;;;;36.20;17.77;;;;;;;-0.18;100.00;99737.16;5089539;28;20028;-71
2023/03/08 04:21:00;;;;;;;37.42;19.75;;;;;;;-0.19;100.00;99731.09;5088275;28;20043;-71
2023/03/08 04:23:26;;;;;;;41.22;19.05;;;;;;;-0.17;100.00;99723.09;5089278;28;20051;-71
2023/03/08 04:25:51;;;;;;;31.85;19.17;;;;;;;-0.18;100.00;99718.81;5089176;28;20031;-71
2023/03/08 04:28:16;;;;;;;34.13;18.15;;;;;;;-0.18;100.00;99721.44;5089323;28;20084;-71
2023/03/08 04:30:42;;;;;;;34.65;19.15;;;;;;;-0.19;100.00;99709.34;5089411;28;20032;-71
2023/03/08 04:33:07;;;;;;;30.75;15.88;;;;;;;-0.19;100.00;99707.53;5074842;28;20043;-71
2023/03/08 04:35:32;;;;;;;36.08;21.42;;;;;;;-0.19;100.00;99704.91;5076322;28;20032;-71
2023/03/08 04:37:58;;;;;;;36.47;18.40;;;;;;;-0.17;100.00;99699.53;5070001;28;20024;-71
2023/03/08 04:40:23;;;;;;;34.35;16.58;;;;;;;-0.17;100.00;99700.34;5071341;28;20025;-71
2023/03/08 04:42:48;;;;;;;30.30;16.05;;;;;;;-0.18;100.00;99685.59;5073980;28;20029;-71
2023/03/08 04:45:14;;;;;;;32.90;17.45;;;;;;;-0.17;100.00;99683.81;5074155;28;20029;-71
2023/03/08 04:47:39;;;;;;;29.08;15.02;;;;;;;-0.18;100.00;99680.38;5074009;28;20131;-71
2023/03/08 04:50:05;;;;;;;31.40;16.15;;;;;;;-0.14;100.00;99686.09;5073929;28;20498;-71
2023/03/08 04:52:30;;;;;;;31.58;16.50;;;;;;;-0.15;100.00;99677.44;5073842;28;20036;-71
2023/03/08 04:54:55;;;;;;;30.42;15.68;;;;;;;-0.14;100.00;99668.56;5072594;28;20067;-71
2023/03/08 04:57:21;;;;;;;30.17;16.15;;;;;;;-0.13;100.00;99669.38;5079287;28;20136;-71
2023/03/08 04:59:46;;;;;;;32.22;17.10;;;;;;;-0.17;100.00;99657.59;5093031;28;20032;-71
2023/03/08 05:02:11;;;;;;;29.17;16.98;;;;;;;-0.18;100.00;99648.91;5093260;28;20112;-71
2023/03/08 05:04:37;;;;;;;32.03;17.20;;;;;;;-0.12;100.00;99653.53;5093072;28;20039;-71
2023/03/08 05:07:03;;;;;;;29.45;16.90;;;;;;;-0.11;100.00;99652.53;5092999;28;20028;-71
2023/03/08 05:09:28;;;;;;;32.03;15.68;;;;;;;-0.10;100.00;99646.34;5092809;28;20032;-71
2023/03/08 05:11:53;;;;;;;33.80;16.55;;;;;;;-0.08;100.00;99635.69;5074092;28;20066;-71
2023/03/08 05:14:20;;;;;;;29.73;16.45;;;;;;;-0.07;100.00;99638.16;5073489;28;20036;-71
2023/03/08 05:16:45;;;;;;;30.70;16.25;;;;;;;-0.10;100.00;99624.56;5073501;28;20115;-71
2023/03/08 05:19:11;;;;;;;31.45;15.77;;;;;;;-0.03;100.00;99626.38;5079368;28;20802;-71
2023/03/08 05:21:36;;;;;;;31.13;13.93;;;;;;;-0.03;100.00;99621.16;5092556;28;20536;-71
2023/03/08 05:24:02;;;;;;;29.63;15.30;;;;;;;-0.02;100.00;99620.16;5092752;28;20024;-71
2023/03/08 05:26:27;;;;;;;33.35;15.43;;;;;;;0.01;100.00;99615.59;5092703;28;20073;-71
2023/03/08 05:28:53;;;;;;;29.40;16.58;;;;;;;0.01;100.00;99608.53;5088154;28;20059;-71
2023/03/08 05:31:20;;;;;;;31.02;16.73;;;;;;;-0.02;100.00;99604.44;5071735;28;20123;-71
2023/03/08 05:33:49;;;;;;;32.58;15.23;;;;;;;-0.01;100.00;99603.44;5073062;28;20099;-71
2023/03/08 05:36:15;;;;;;;31.05;16.40;;;;;;;0.03;100.00;99603.13;5073017;28;20024;-71
2023/03/08 05:38:41;;;;;;;28.98;14.73;;;;;;;-0.05;100.00;99581.16;5072824;28;20504;-71
2023/03/08 05:41:10;;;;;;;26.23;12.15;;;;;;;0.00;100.00;99583.31;5072940;28;20032;-71
2023/03/08 05:43:35;;;;;;;32.00;14.27;;;;;;;0.04;100.00;99587.25;5072906;28;20468;-71
2023/03/08 05:46:03;;;;;;;30.08;14.27;;;;;;;0.04;100.00;99579.38;5081726;28;20032;-71
2023/03/08 05:48:30;;;;;;;27.63;13.48;;;;;;;0.04;100.00;99584.63;5092171;28;20057;-72
2023/03/08 05:50:56;;;;;;;30.05;14.68;;;;;;;0.04;100.00;99568.06;5091674;28;20474;-71
2023/03/08 05:53:22;;;;;;;30.10;15.18;;;;;;;0.04;100.00;99563.66;5092168;28;20055;-72
2023/03/08 05:55:47;;;;;;;30.33;14.13;;;;;;;0.03;100.00;99559.41;5091822;28;20059;-71
2023/03/08 05:58:13;;;;;;;27.60;14.32;;;;;;;0.03;100.00;99554.16;5092022;28;20467;-71
2023/03/08 06:00:39;;;;;;;30.15;14.27;;;;;;;0.04;100.00;99553.16;5091922;28;20020;-71
2023/03/08 06:03:04;;;;;;;29.73;12.52;;;;;;;-0.01;100.00;99540.53;5091892;28;20030;-71
2023/03/08 06:05:31;;;;;;;29.38;14.90;;;;;;;0.06;100.00;99545.97;5091791;28;20074;-71
2023/03/08 06:07:57;;;;;;;28.40;14.40;;;;;;;0.02;100.00;99534.16;5091720;28;20912;-71
2023/03/08 06:10:23;;;;;;;29.42;13.52;;;;;;;0.03;100.00;99532.34;5091819;28;20027;-71
2023/03/08 06:12:48;;;;;;;28.92;14.20;;;;;;;0.04;100.00;99536.63;5091944;28;20023;-71
2023/03/08 06:15:14;;;;;;;27.95;13.02;;;;;;;-0.02;100.00;99525.81;5091947;28;20493;-71
2023/03/08 06:17:40;;;;;;;29.27;14.07;;;;;;;0.03;100.00;99529.72;5091735;28;20578;-71
2023/03/08 06:20:07;;;;;;;28.92;12.95;;;;;;;0.02;100.00;99528.91;5091580;28;21114;-71
2023/03/08 06:22:33;;;;;;;26.50;11.63;;;;;;;0.02;100.00;99526.28;5091452;28;20038;-71
2023/03/08 06:24:58;;;;;;;28.67;13.70;;;;;;;0.01;100.00;99529.09;5091436;28;20049;-71
2023/03/08 06:27:24;;;;;;;29.20;14.25;;;;;;;0.02;100.00;99530.72;5091615;28;20115;-71
2023/03/08 06:29:49;;;;;;;24.58;13.13;;;;;;;-0.01;100.00;99524.81;5091451;28;20070;-71
2023/03/08 06:32:15;;;;;;;24.95;10.73;;;;;;;-0.04;100.00;99521.69;5090740;28;20067;-71
2023/03/08 06:34:41;;;;;;;25.30;11.57;;;;;;;-0.04;100.00;99533.00;5085198;28;20391;-69
2023/03/08 06:37:06;;;;;;;25.17;11.00;;;;;;;-0.03;100.00;99525.94;5091101;28;20035;-69
2023/03/08 06:39:33;;;;;;;23.05;10.95;;;;;;;-0.10;100.00;99524.97;5082745;28;20023;-70
2023/03/08 06:42:01;;;;;;;23.10;10.40;;;;;;;-0.10;100.00;99514.50;5091115;28;20039;-70
2023/03/08 06:44:27;;;;;;;21.05;8.55;;;;;;;-0.08;100.00;99523.84;5083330;28;20115;-70
2023/03/08 06:46:52;;;;;;;21.95;10.10;;;;;;;-0.12;100.00;99513.81;5073860;28;20118;-69
2023/03/08 06:49:17;;;;;;;19.63;9.70;;;;;;;-0.14;100.00;99508.75;5075537;28;20032;-68
2023/03/08 06:51:43;;;;;;;17.35;8.32;;;;;;;-0.13;100.00;99513.00;5072849;28;20132;-69
2023/03/08 06:54:08;;;;;;;17.50;7.80;;;;;;;-0.14;100.00;99513.97;5074139;28;20036;-70
2023/03/08 06:56:33;;;;;;;16.75;7.45;;;;;;;-0.15;100.00;99509.72;5073962;28;20051;-69
2023/03/08 06:58:59;;;;;;;16.08;6.95;;;;;;;-0.16;100.00;99512.50;5074653;28;20039;-69
2023/03/08 07:01:24;;;;;;;17.77;7.55;;;;;;;-0.16;100.00;99513.31;5073943;28;20048;-70
2023/03/08 07:03:51;;;;;;;18.98;7.70;;;;;;;-0.15;100.00;99524.63;5073171;28;20017;-69
2023/03/08 07:06:16;;;;;;;17.33;6.57;;;;;;;-0.17;100.00;99516.94;5074787;28;20529;-71
2023/03/08 07:08:42;;;;;;;13.80;6.88;;;;;;;-0.16;100.00;99517.75;5074279;28;20032;-71
2023/03/08 07:11:08;;;;;;;15.35;6.50;;;;;;;-0.19;100.00;99516.25;5073718;28;20574;-70
2023/03/08 07:13:34;;;;;;;15.50;6.40;;;;;;;-0.22;100.00;99509.53;5075091;28;20033;-70
2023/03/08 07:16:05;;;;;;;15.70;7.22;;;;;;;-0.18;100.00;99512.69;5073514;28;20055;-70
2023/03/08 07:18:30;;;;;;;14.70;5.87;;;;;;;-0.18;100.00;99510.06;5074417;28;20098;-70
2023/03/08 07:20:56;;;;;;;14.52;6.13;;;;;;;-0.20;100.00;99503.34;5073580;28;20020;-69
2023/03/08 07:23:22;;;;;;;16.90;6.55;;;;;;;-0.22;100.00;99508.72;5073478;28;20032;-69
2023/03/08 07:25:47;;;;;;;16.23;6.60;;;;;;;-0.25;100.00;99499.38;5073563;28;20488;-69
2023/03/08 07:28:12;;;;;;;13.63;5.55;;;;;;;-0.27;100.00;99492.66;5074000;28;20052;-69
2023/03/08 07:30:38;;;;;;;11.95;4.75;;;;;;;-0.30;100.00;99493.81;5074251;28;20052;-69
2023/03/08 07:33:03;;;;;;;15.20;6.35;;;;;;;-0.30;100.00;99488.56;5074177;28;20024;-71
2023/03/08 07:35:28;;;;;;;15.32;5.88;;;;;;;-0.29;100.00;99484.97;5073142;28;20205;-72
2023/03/08 07:37:54;;;;;;;13.30;6.45;;;;;;;-0.28;100.00;99481.38;5073473;28;20020;-70
2023/03/08 07:40:19;;;;;;;15.07;5.43;;;;;;;-0.26;100.00;99487.28;5073975;28;20024;-66
2023/03/08 07:42:45;;;;;;;19.95;7.25;;;;;;;-0.24;100.00;99476.63;5073497;28;20039;-66
2023/03/08 07:45:11;;;;;;;15.45;6.05;;;;;;;-0.26;100.00;99475.97;5073606;28;20024;-66
2023/03/08 07:47:37;;;;;;;15.80;7.90;;;;;;;-0.22;100.00;99472.03;5073268;28;20039;-65
2023/03/08 07:50:03;;;;;;;15.73;6.93;;;;;;;-0.22;100.00;99477.28;5073454;28;20032;-66
2023/03/08 07:52:30;;;;;;;16.75;7.63;;;;;;;-0.19;100.00;99476.13;5073068;28;20483;-67
2023/03/08 07:54:55;;;;;;;16.38;5.97;;;;;;;-0.17;100.00;99472.38;5073263;28;20090;-67
2023/03/08 07:57:21;;;;;;;19.65;9.02;;;;;;;-0.15;100.00;99461.75;5073006;28;20178;-67
2023/03/08 07:59:48;;;;;;;17.85;7.60;;;;;;;-0.16;100.00;99466.16;5073017;28;20068;-66
2023/03/08 08:02:14;;;;;;;16.48;6.45;;;;;;;-0.22;100.00;99466.81;5089691;28;20020;-66
2023/03/08 08:04:40;;;;;;;19.50;7.80;;;;;;;-0.23;100.00;99463.38;5081340;28;20043;-66
2023/03/08 08:07:09;;;;;;;14.98;6.45;;;;;;;-0.26;100.00;99463.69;5069483;28;20475;-66
2023/03/08 08:09:36;;;;;;;15.68;6.95;;;;;;;-0.29;100.00;99448.31;5069830;28;20028;-66
2023/03/08 08:12:02;;;;;;;15.80;6.57;;;;;;;-0.27;100.00;99450.75;5070025;28;20024;-66
2023/03/08 08:14:27;;;;;;;15.90;6.60;;;;;;;-0.26;100.00;99447.16;5088884;28;20077;-66
2023/03/08 08:16:53;;;;;;;14.23;6.25;;;;;;;-0.25;100.00;99449.59;5089297;28;20032;-66
2023/03/08 08:19:18;;;;;;;13.95;6.00;;;;;;;-0.26;100.00;99453.22;5071598;28;20044;-66
2023/03/08 08:21:43;;;;;;;13.68;5.22;;;;;;;-0.30;100.00;99449.28;5070248;28;20029;-66
2023/03/08 08:24:09;;;;;;;14.57;6.20;;;;;;;-0.30;100.00;99443.22;5069713;28;20036;-66
2023/03/08 08:26:34;;;;;;;11.75;5.22;;;;;;;-0.32;100.00;99448.59;5069558;28;20029;-70
2023/03/08 08:29:00;;;;;;;14.68;6.60;;;;;;;-0.35;100.00;99437.63;5069186;28;20032;-69
2023/03/08 08:31:29;;;;;;;16.67;7.05;;;;;;;-0.41;100.00;99431.25;5069660;28;20111;-72
2023/03/08 08:33:56;;;;;;;13.50;6.20;;;;;;;-0.39;100.00;99428.44;5069737;28;20047;-68
2023/03/08 08:36:22;;;;;;;14.23;6.13;;;;;;;-0.42;100.00;99431.41;5071127;28;20642;-72
2023/03/08 08:38:48;;;;;;;14.48;5.60;;;;;;;-0.47;100.00;99424.03;5088688;28;20123;-70
2023/03/08 08:41:16;;;;;;;15.48;5.68;;;;;;;-0.49;100.00;99423.38;5075850;28;20052;-70
2023/03/08 08:43:42;;;;;;;13.50;5.75;;;;;;;-0.55;100.00;99414.38;5088780;28;20033;-71
2023/03/08 08:46:09;;;;;;;15.32;6.70;;;;;;;-0.59;100.00;99404.38;5083348;28;20033;-68
2023/03/08 08:48:36;;;;;;;8.40;4.15;;;;;;;-0.57;100.00;99389.31;5077096;28;20024;-68
2023/03/08 08:51:02;;;;;;;12.25;5.97;;;;;;;-0.61;100.00;99390.63;5076459;28;20115;-71
2023/03/08 08:53:28;;;;;;;12.63;4.65;;;;;;;-0.64;100.00;99393.56;5069562;28;20033;-69
2023/03/08 08:55:53;;;;;;;14.15;5.82;;;;;;;-0.62;100.00;99402.09;5069543;28;20082;-69
2023/03/08 08:58:19;;;;;;;9.95;3.88;;;;;;;-0.60;100.00;99400.94;5088526;28;20471;-71
2023/03/08 09:00:45;;;;;;;9.35;4.53;;;;;;;-0.61;100.00;99398.47;5088784;28;20039;-70
2023/03/08 09:03:11;;;;;;;10.82;4.93;;;;;;;-0.60;100.00;99402.72;5088957;28;20887;-71
2023/03/08 09:05:39;;;;;;;13.32;4.88;;;;;;;-0.62;100.00;99408.13;5088750;28;20085;-72
2023/03/08 09:08:04;;;;;;;12.35;5.47;;;;;;;-0.57;100.00;99408.47;5088518;28;20031;-71
2023/03/08 09:10:33;;;;;;;11.02;4.35;;;;;;;-0.55;100.00;99414.38;5088521;28;20024;-71
2023/03/08 09:12:59;;;;;;;12.23;6.30;;;;;;;-0.52;100.00;99418.47;5088645;28;20042;-71
2023/03/08 09:15:24;;;;;;;13.18;6.18;;;;;;;-0.52;100.00;99421.91;5088521;28;20028;-71
2023/03/08 09:17:50;;;;;;;14.55;4.57;;;;;;;-0.53;100.00;99420.25;5088700;28;20038;-71
2023/03/08 09:20:16;;;;;;;13.50;5.53;;;;;;;-0.51;100.00;99415.66;5088536;28;20016;-71
2023/03/08 09:22:42;;;;;;;13.73;5.03;;;;;;;-0.51;100.00;99407.81;5082984;28;20495;-71
2023/03/08 09:25:08;;;;;;;15.55;6.22;;;;;;;-0.54;100.00;99387.19;5088439;28;20028;-70
2023/03/08 09:27:36;;;;;;;13.23;5.47;;;;;;;-0.65;100.00;99356.09;5091634;28;20060;-70
2023/03/08 09:30:03;;;;;;;13.82;6.35;;;;;;;-0.54;100.00;99360.19;5092294;28;20028;-73
2023/03/08 09:32:31;;;;;;;14.38;6.05;;;;;;;-0.47;100.00;99355.97;5092239;28;20066;-71
2023/03/08 09:34:57;;;;;;;13.73;6.25;;;;;;;-0.46;100.00;99350.53;5072808;28;20028;-71
2023/03/08 09:37:22;;;;;;;14.18;5.85;;;;;;;-0.41;100.00;99357.09;5072648;28;20040;-72
2023/03/08 09:39:50;;;;;;;20.08;7.15;;;;;;;-0.40;100.00;99353.50;5072955;28;20115;-71
2023/03/08 09:42:29;;;;;;;17.58;9.23;;;;;;;-0.36;100.00;99349.56;5075230;28;20063;-70
2023/03/08 09:45:07;;;;;;;23.13;7.95;;;;;;;-0.29;100.00;99348.75;5088878;28;20237;-73
2023/03/08 09:47:45;;;;;;;20.13;8.68;;;;;;;-0.26;100.00;99340.56;5092040;28;20394;-70
2023/03/08 09:50:10;;;;;;;24.38;10.68;;;;;;;-0.20;100.00;99341.72;5091931;28;20028;-74
2023/03/08 09:52:42;;;;;;;22.38;10.48;;;;;;;-0.24;100.00;99338.63;5077129;28;20024;-73
2023/03/08 09:55:29;;;;;;;22.77;10.48;;;;;;;-0.27;100.00;99333.69;5091893;28;20028;-72
2023/03/08 09:58:01;;;;;;;20.92;9.32;;;;;;;-0.22;100.00;99325.34;5091806;28;20079;-74
2023/03/08 10:00:37;;;;;;;24.17;10.15;;;;;;;-0.13;100.00;99324.34;5083680;28;20376;-72
2023/03/08 10:03:21;;;;;;;26.60;12.55;;;;;;;-0.06;100.00;99332.34;5085682;28;20366;-72
2023/03/08 10:06:05;;;;;;;26.27;12.60;;;;;;;0.08;100.00;99331.69;5091581;28;20035;-71
2023/03/08 10:08:56;;;;;;;23.65;11.70;;;;;;;0.19;100.00;99312.19;5091485;28;20024;-71
2023/03/08 10:12:00;;;;;;;29.63;13.63;;;;;;;0.19;100.00;99301.69;5083492;28;20127;-71
2023/03/08 10:14:33;;;;;;;23.75;12.73;;;;;;;0.15;100.00;99301.19;5079194;28;20111;-71
2023/03/08 10:17:09;;;;;;;26.92;13.30;;;;;;;0.25;100.00;99306.25;5086890;28;20414;-72
2023/03/08 10:19:41;;;;;;;25.00;12.50;;;;;;;0.34;100.00;99312.28;5073278;28;20517;-72
2023/03/08 10:22:26;;;;;;;27.00;12.40;;;;;;;0.44;100.00;99315.53;5074729;28;20055;-71
2023/03/08 10:25:15;;;;;;;26.08;12.98;;;;;;;0.45;100.00;99319.81;5078016;28;20040;-69
2023/03/08 10:27:41;;;;;;;27.15;11.75;;;;;;;0.43;100.00;99319.97;5074099;28;20032;-68
2023/03/08 10:30:15;;;;;;;25.20;14.13;;;;;;;0.48;100.00;99329.97;5074214;28;20036;-71
2023/03/08 10:32:44;;;;;;;22.15;10.35;;;;;;;0.46;100.00;99318.81;5074265;28;20060;-69
2023/03/08 10:35:09;;;;;;;23.63;9.15;;;;;;;0.33;100.00;99308.03;5074870;28;20035;-72
2023/03/08 10:37:35;;;;;;;20.83;10.63;;;;;;;0.26;100.00;99305.25;5073743;28;20467;-73
2023/03/08 10:40:07;;;;;;;20.73;9.05;;;;;;;0.27;100.00;99300.84;5073984;28;20107;-73
2023/03/08 10:42:32;;;;;;;;;;;;;;;0.33;100.00;99300.16;5074902;28;20433;-72
2023/03/08 10:44:57;;;;;;;21.48;10.20;;;;;;;0.37;100.00;99301.47;5074190;28;20007;-71
2023/03/08 10:47:26;;;;;;;19.92;9.27;;;;;;;0.38;100.00;99295.25;5074533;28;20115;-74
2023/03/08 10:50:13;;;;;;;18.60;9.50;;;;;;;0.41;100.00;99294.91;5074147;28;20028;-73
2023/03/08 10:52:39;;;;;;;16.23;8.23;;;;;;;0.43;100.00;99290.31;5073621;28;20383;-73
2023/03/08 10:55:10;;;;;;;19.20;9.85;;;;;;;0.48;100.00;99290.63;5072467;28;20563;-71
2023/03/08 10:57:36;;;;;;;19.15;9.07;;;;;;;0.49;100.00;99275.69;5074030;28;20048;-74
2023/03/08 11:00:43;;;;;;;15.98;8.98;;;;;;;0.59;100.00;99273.69;5073808;28;20497;-74
2023/03/08 11:03:23;;;;;;;18.75;8.38;;;;;;;0.54;100.00;99268.13;5073508;28;20058;-74
2023/03/08 11:06:00;;;;;;;18.85;8.63;;;;;;;0.62;100.00;99281.19;5072849;28;20021;-75
2023/03/08 11:08:35;;;;;;;18.13;8.55;;;;;;;0.72;100.00;99281.00;5073556;28;20388;-74
2023/03/08 11:11:09;;;;;;;14.85;7.60;;;;;;;0.79;100.00;99281.97;5073690;28;20020;-73
2023/03/08 11:13:40;;;;;;;17.77;8.13;;;;;;;0.91;100.00;99296.31;5073884;28;20419;-74
2023/03/08 11:16:21;;;;;;;17.60;8.93;;;;;;;0.93;100.00;99289.09;5072924;28;20097;-74